Time,TemperatureF,DewpointF,PressureIn,WindDirection,WindDirectionDegrees,WindSpeedMPH,WindSpeedGustMPH,Humidity,HourlyPrecipIn,Conditions,Clouds,dailyrainin,SoftwareType,DateUTC
2013-01-30 00:06:00,62.3,62.0,29.46,WSW,243,7.0,19.0,98,0.93,,,0.26,weatherlink.com 1.10,2013-01-30 06:06:00,
2013-01-30 00:22:00,57.0,56.0,29.56,ENE,68,6.0,23.0,95,1.50,,,0.85,weatherlink.com 1.10,2013-01-30 06:22:00,
2013-01-30 00:36:00,55.0,54.0,29.59,WSW,248,2.0,10.0,97,1.56,,,1.01,weatherlink.com 1.10,2013-01-30 06:36:00,
2013-01-30 00:52:00,54.3,54.0,29.60,North,352,1.0,8.0,98,1.20,,,1.13,weatherlink.com 1.10,2013-01-30 06:52:00,
2013-01-30 01:08:00,54.0,54.0,29.59,NNW,328,3.0,5.0,98,0.94,,,1.24,weatherlink.com 1.10,2013-01-30 07:08:00,
2013-01-30 01:22:00,53.7,53.0,29.56,SW,215,1.0,9.0,98,0.44,,,1.30,weatherlink.com 1.10,2013-01-30 07:22:00,
2013-01-30 01:37:00,53.6,53.0,29.57,NNE,22,1.0,4.0,99,0.29,,,1.32,weatherlink.com 1.10,2013-01-30 07:37:00,
2013-01-30 01:51:00,53.6,53.0,29.58,NE,49,0.0,0.0,99,0.24,,,1.37,weatherlink.com 1.10,2013-01-30 07:51:00,
2013-01-30 02:06:00,53.7,54.0,29.56,NE,53,0.0,1.0,99,0.17,,,1.40,weatherlink.com 1.10,2013-01-30 08:06:00,
2013-01-30 02:22:00,53.6,53.0,29.56,NNE,15,0.0,1.0,99,0.14,,,1.44,weatherlink.com 1.10,2013-01-30 08:22:00,
2013-01-30 02:39:00,53.7,54.0,29.57,SSW,203,0.0,2.0,99,0.19,,,1.52,weatherlink.com 1.10,2013-01-30 08:39:00,
2013-01-30 02:53:00,53.7,54.0,29.59,SW,224,1.0,2.0,99,0.21,,,1.59,weatherlink.com 1.10,2013-01-30 08:53:00,
2013-01-30 03:07:00,53.7,54.0,29.59,SSW,194,1.0,3.0,99,0.22,,,1.62,weatherlink.com 1.10,2013-01-30 09:07:00,
2013-01-30 03:22:00,53.6,53.0,29.57,SW,229,0.0,3.0,99,0.22,,,1.66,weatherlink.com 1.10,2013-01-30 09:22:00,
2013-01-30 03:37:00,53.6,54.0,29.57,SSW,197,2.0,3.0,100,0.20,,,1.71,weatherlink.com 1.10,2013-01-30 09:37:00,
2013-01-30 03:52:00,53.7,54.0,29.59,SW,219,1.0,6.0,100,0.17,,,1.75,weatherlink.com 1.10,2013-01-30 09:52:00,
2013-01-30 04:08:00,53.6,54.0,29.59,SW,219,2.0,6.0,100,0.18,,,1.80,weatherlink.com 1.10,2013-01-30 10:08:00,
2013-01-30 04:23:00,53.6,54.0,29.55,East,96,3.0,5.0,100,0.17,,,1.83,weatherlink.com 1.10,2013-01-30 10:23:00,
2013-01-30 04:39:00,53.5,54.0,29.54,SW,224,2.0,5.0,100,0.13,,,1.84,weatherlink.com 1.10,2013-01-30 10:39:00,
2013-01-30 04:54:00,53.4,53.0,29.53,SE,126,2.0,6.0,100,0.09,,,1.84,weatherlink.com 1.10,2013-01-30 10:54:00,
2013-01-30 05:08:00,53.2,53.0,29.51,East,80,4.0,4.0,100,0.04,,,1.84,weatherlink.com 1.10,2013-01-30 11:08:00,
2013-01-30 05:24:00,53.0,53.0,29.53,South,177,4.0,7.0,100,0.02,,,1.85,weatherlink.com 1.10,2013-01-30 11:24:00,
2013-01-30 05:39:00,52.9,53.0,29.52,SSW,198,6.0,7.0,100,0.01,,,1.85,weatherlink.com 1.10,2013-01-30 11:39:00,
2013-01-30 05:53:00,52.8,53.0,29.52,East,84,4.0,8.0,100,0.01,,,1.85,weatherlink.com 1.10,2013-01-30 11:53:00,
2013-01-30 06:08:00,52.5,53.0,29.51,SSW,207,2.0,8.0,100,0.00,,,1.85,weatherlink.com 1.10,2013-01-30 12:08:00,
2013-01-30 06:23:00,52.2,52.0,29.51,SSW,211,3.0,6.0,100,0.00,,,1.85,weatherlink.com 1.10,2013-01-30 12:23:00,
2013-01-30 06:38:00,52.0,52.0,29.53,WSW,240,5.0,7.0,100,0.00,,,1.85,weatherlink.com 1.10,2013-01-30 12:38:00,
2013-01-30 06:53:00,52.0,52.0,29.54,SW,222,3.0,7.0,100,0.00,,,1.85,weatherlink.com 1.10,2013-01-30 12:53:00,
2013-01-30 07:08:00,52.0,52.0,29.54,SSE,148,5.0,10.0,100,0.00,,,1.85,weatherlink.com 1.10,2013-01-30 13:08:00,
2013-01-30 07:23:00,52.1,52.0,29.54,SW,228,6.0,7.0,100,0.00,,,1.85,weatherlink.com 1.10,2013-01-30 13:23:00,
2013-01-30 07:38:00,52.0,52.0,29.54,South,179,3.0,8.0,100,0.00,,,1.85,weatherlink.com 1.10,2013-01-30 13:38:00,
2013-01-30 07:53:00,52.2,52.0,29.55,SW,235,6.0,8.0,100,0.00,,,1.85,weatherlink.com 1.10,2013-01-30 13:53:00,
2013-01-30 08:08:00,52.5,53.0,29.56,NW,319,1.0,10.0,100,0.00,,,1.85,weatherlink.com 1.10,2013-01-30 14:08:00,
2013-01-30 08:23:00,53.2,53.0,29.55,WSW,252,3.0,11.0,100,0.00,,,1.85,weatherlink.com 1.10,2013-01-30 14:23:00,
2013-01-30 08:38:00,53.6,53.0,29.54,SW,228,7.0,9.0,99,0.00,,,1.85,weatherlink.com 1.10,2013-01-30 14:38:00,
2013-01-30 08:53:00,54.2,54.0,29.54,ESE,119,2.0,10.0,98,0.00,,,1.85,weatherlink.com 1.10,2013-01-30 14:53:00,
2013-01-30 09:08:00,54.6,53.0,29.53,SSW,197,6.0,18.0,93,0.00,,,1.85,weatherlink.com 1.10,2013-01-30 15:08:00,
2013-01-30 09:23:00,55.2,52.0,29.54,SSW,208,1.0,9.0,90,0.00,,,1.85,weatherlink.com 1.10,2013-01-30 15:23:00,
2013-01-30 09:39:00,55.5,51.0,29.55,WSW,249,7.0,10.0,85,0.00,,,1.85,weatherlink.com 1.10,2013-01-30 15:39:00,
2013-01-30 09:53:00,55.8,50.0,29.55,East,92,6.0,12.0,80,0.00,,,1.85,weatherlink.com 1.10,2013-01-30 15:53:00,
2013-01-30 10:08:00,55.7,50.0,29.55,SSW,195,9.0,10.0,81,0.00,,,1.85,weatherlink.com 1.10,2013-01-30 16:08:00,
2013-01-30 10:23:00,55.8,50.0,29.55,NNW,344,0.0,11.0,82,0.00,,,1.85,weatherlink.com 1.10,2013-01-30 16:23:00,
2013-01-30 10:38:00,55.5,49.0,29.56,SSE,155,2.0,10.0,78,0.00,,,1.85,weatherlink.com 1.10,2013-01-30 16:38:00,
2013-01-30 10:53:00,55.3,48.0,29.57,WSW,240,3.0,12.0,76,0.00,,,1.85,weatherlink.com 1.10,2013-01-30 16:53:00,
2013-01-30 11:08:00,55.5,49.0,29.57,SSW,210,3.0,11.0,78,0.00,,,1.85,weatherlink.com 1.10,2013-01-30 17:08:00,
2013-01-30 11:23:00,55.1,47.0,29.54,South,190,3.0,14.0,75,0.00,,,1.85,weatherlink.com 1.10,2013-01-30 17:23:00,
2013-01-30 11:38:00,55.1,47.0,29.56,South,184,6.0,11.0,73,0.00,,,1.85,weatherlink.com 1.10,2013-01-30 17:38:00,
2013-01-30 11:53:00,55.7,46.0,29.56,WSW,248,1.0,10.0,71,0.00,,,1.85,weatherlink.com 1.10,2013-01-30 17:53:00,
2013-01-30 12:09:00,55.1,45.0,29.56,NW,318,1.0,15.0,69,0.00,,,1.85,weatherlink.com 1.10,2013-01-30 18:09:00,
2013-01-30 12:24:00,54.6,45.0,29.57,West,281,2.0,14.0,71,0.00,,,1.85,weatherlink.com 1.10,2013-01-30 18:24:00,
2013-01-30 12:39:00,53.3,44.0,29.58,SSW,208,3.0,13.0,70,0.00,,,1.85,weatherlink.com 1.10,2013-01-30 18:39:00,
2013-01-30 12:54:00,52.2,44.0,29.58,NE,35,3.0,12.0,73,0.00,,,1.85,weatherlink.com 1.10,2013-01-30 18:54:00,
2013-01-30 13:09:00,50.9,43.0,29.59,ESE,121,2.0,11.0,73,0.00,,,1.85,weatherlink.com 1.10,2013-01-30 19:09:00,
2013-01-30 13:24:00,49.6,42.0,29.61,NE,36,2.0,14.0,76,0.00,,,1.85,weatherlink.com 1.10,2013-01-30 19:24:00,
2013-01-30 13:39:00,48.9,42.0,29.61,SSW,211,5.0,12.0,77,0.00,,,1.85,weatherlink.com 1.10,2013-01-30 19:39:00,
2013-01-30 13:54:00,47.2,41.0,29.63,West,273,3.0,11.0,78,0.00,,,1.85,weatherlink.com 1.10,2013-01-30 19:54:00,
2013-01-30 14:09:00,45.3,38.0,29.64,WNW,283,2.0,17.0,76,0.00,,,1.85,weatherlink.com 1.10,2013-01-30 20:09:00,
2013-01-30 14:24:00,44.6,38.0,29.65,ESE,117,4.0,12.0,78,0.00,,,1.85,weatherlink.com 1.10,2013-01-30 20:24:00,
2013-01-30 14:39:00,44.1,38.0,29.66,WSW,245,1.0,10.0,78,0.00,,,1.85,weatherlink.com 1.10,2013-01-30 20:39:00,
2013-01-30 14:54:00,43.5,37.0,29.68,ENE,68,2.0,14.0,77,0.00,,,1.85,weatherlink.com 1.10,2013-01-30 20:54:00,
2013-01-30 15:09:00,43.1,36.0,29.69,North,350,3.0,11.0,75,0.00,,,1.85,weatherlink.com 1.10,2013-01-30 21:09:00,
2013-01-30 15:24:00,43.2,36.0,29.71,NE,53,3.0,6.0,76,0.00,,,1.85,weatherlink.com 1.10,2013-01-30 21:24:00,
2013-01-30 15:39:00,43.1,35.0,29.71,East,97,6.0,11.0,74,0.00,,,1.85,weatherlink.com 1.10,2013-01-30 21:39:00,
2013-01-30 15:54:00,43.5,34.0,29.71,NE,49,4.0,12.0,68,0.00,,,1.85,weatherlink.com 1.10,2013-01-30 21:54:00,
2013-01-30 16:09:00,43.7,33.0,29.73,SSE,152,1.0,9.0,67,0.00,,,1.85,weatherlink.com 1.10,2013-01-30 22:09:00,
2013-01-30 16:24:00,43.2,32.0,29.74,SE,136,8.0,15.0,65,0.00,,,1.85,weatherlink.com 1.10,2013-01-30 22:24:00,
2013-01-30 16:39:00,42.8,32.0,29.76,WNW,294,6.0,18.0,66,0.00,,,1.85,weatherlink.com 1.10,2013-01-30 22:39:00,
2013-01-30 16:54:00,41.3,30.0,29.77,West,264,9.0,14.0,64,0.00,,,1.85,weatherlink.com 1.10,2013-01-30 22:54:00,
2013-01-30 17:09:00,40.4,28.0,29.78,SW,235,4.0,16.0,62,0.00,,,1.85,weatherlink.com 1.10,2013-01-30 23:09:00,
2013-01-30 17:25:00,39.7,29.0,29.79,NW,311,8.0,14.0,65,0.00,,,1.85,weatherlink.com 1.10,2013-01-30 23:25:00,
2013-01-30 17:40:00,39.8,29.0,29.82,ENE,63,6.0,13.0,65,0.00,,,1.85,weatherlink.com 1.10,2013-01-30 23:40:00,
2013-01-30 17:56:00,39.4,29.0,29.83,WNW,292,4.0,19.0,66,0.00,,,1.85,weatherlink.com 1.10,2013-01-30 23:56:00,
2013-01-30 18:10:00,39.1,28.0,29.84,ENE,77,4.0,15.0,65,0.00,,,1.85,weatherlink.com 1.10,2013-01-31 00:10:00,
2013-01-30 18:25:00,38.8,27.0,29.86,WNW,290,5.0,12.0,64,0.00,,,1.85,weatherlink.com 1.10,2013-01-31 00:25:00,
2013-01-30 18:40:00,38.7,28.0,29.87,WNW,296,6.0,15.0,66,0.00,,,1.85,weatherlink.com 1.10,2013-01-31 00:40:00,
2013-01-30 18:55:00,38.7,28.0,29.89,WNW,286,2.0,19.0,66,0.00,,,1.85,weatherlink.com 1.10,2013-01-31 00:55:00,
2013-01-30 19:10:00,38.5,28.0,29.89,NW,304,2.0,13.0,66,0.00,,,1.85,weatherlink.com 1.10,2013-01-31 01:10:00,
2013-01-30 19:25:00,38.1,28.0,29.90,NNW,330,3.0,10.0,68,0.00,,,1.85,weatherlink.com 1.10,2013-01-31 01:25:00,
2013-01-30 19:40:00,37.8,27.0,29.91,NNW,331,3.0,12.0,66,0.00,,,1.85,weatherlink.com 1.10,2013-01-31 01:40:00,
2013-01-30 19:55:00,37.5,28.0,29.92,SSW,198,1.0,10.0,68,0.00,,,1.85,weatherlink.com 1.10,2013-01-31 01:55:00,
2013-01-30 20:10:00,37.2,28.0,29.93,SSW,208,2.0,9.0,69,0.00,,,1.85,weatherlink.com 1.10,2013-01-31 02:10:00,
2013-01-30 20:25:00,36.8,28.0,29.94,West,267,2.0,10.0,71,0.00,,,1.85,weatherlink.com 1.10,2013-01-31 02:25:00,
2013-01-30 20:40:00,36.8,28.0,29.95,ENE,59,3.0,11.0,70,0.00,,,1.85,weatherlink.com 1.10,2013-01-31 02:40:00,
2013-01-30 20:55:00,36.7,27.0,29.96,WNW,301,2.0,11.0,69,0.00,,,1.85,weatherlink.com 1.10,2013-01-31 02:55:00,
2013-01-30 21:10:00,36.7,28.0,29.98,West,259,3.0,9.0,70,0.00,,,1.85,weatherlink.com 1.10,2013-01-31 03:10:00,
2013-01-30 21:26:00,36.1,27.0,29.98,West,270,4.0,16.0,69,0.00,,,1.85,weatherlink.com 1.10,2013-01-31 03:26:00,
2013-01-30 21:40:00,35.5,27.0,29.99,WNW,293,2.0,8.0,70,0.00,,,1.85,weatherlink.com 1.10,2013-01-31 03:40:00,
2013-01-30 21:55:00,35.1,27.0,29.99,ESE,105,2.0,6.0,71,0.00,,,1.85,weatherlink.com 1.10,2013-01-31 03:55:00,
2013-01-30 22:14:00,34.6,26.0,30.00,NNE,15,0.0,9.0,72,0.00,,,1.85,weatherlink.com 1.10,2013-01-31 04:14:00,
2013-01-30 22:26:00,34.3,26.0,30.01,NE,56,2.0,5.0,73,0.00,,,1.85,weatherlink.com 1.10,2013-01-31 04:26:00,
2013-01-30 22:41:00,34.1,27.0,30.01,SW,218,1.0,5.0,75,0.00,,,1.85,weatherlink.com 1.10,2013-01-31 04:41:00,
2013-01-30 22:56:00,34.0,27.0,30.02,West,278,1.0,9.0,74,0.00,,,1.85,weatherlink.com 1.10,2013-01-31 04:56:00,
2013-01-30 23:11:00,33.7,27.0,30.02,North,6,0.0,5.0,75,0.00,,,1.85,weatherlink.com 1.10,2013-01-31 05:11:00,
2013-01-30 23:26:00,33.4,26.0,30.02,ENE,67,1.0,8.0,75,0.00,,,1.85,weatherlink.com 1.10,2013-01-31 05:26:00,
2013-01-30 23:44:00,33.2,26.0,30.02,NE,54,1.0,10.0,75,0.00,,,1.85,weatherlink.com 1.10,2013-01-31 05:44:00,
2013-01-30 23:56:00,32.9,26.0,30.03,NNW,332,1.0,5.0,75,0.00,,,1.85,weatherlink.com 1.10,2013-01-31 05:56:00,